Time;durP1;ratioP1;P1;durP2;ratioP2;P2;SDS_P1;SDS_P2;PMS_P1;PMS_P2;Temp;Humidity;BMP_temperature;BMP_pressure;BME280_temperature;BME280_humidity;BME280_pressure;Samples;Min_cycle;Max_cycle;Signal;HPM_P1;HPM_P2
2021/12/15 00:01:39;;;;;;;17.73;10.20;;;;;;;;;;1751788;80;21026;-63
2021/12/15 00:04:06;;;;;;;13.32;8.88;;;;;;;;;;1756748;80;20924;-64
2021/12/15 00:06:32;;;;;;;16.07;10.58;;;;;;;;;;1755435;81;21024;-63
2021/12/15 00:09:00;;;;;;;16.05;10.93;;;;;;;;;;1753576;81;21223;-67
2021/12/15 00:11:32;;;;;;;17.25;9.38;;;;;;;;;;1754939;81;20930;-64
2021/12/15 00:13:57;;;;;;;15.25;9.93;;;;;;;;;;1754254;81;20947;-62
2021/12/15 00:16:24;;;;;;;15.38;10.43;;;;;;;;;;1755808;81;20962;-64
2021/12/15 00:18:50;;;;;;;18.70;11.70;;;;;;;;;;1754615;80;20938;-62
2021/12/15 00:21:18;;;;;;;30.20;15.43;;;;;;;;;;1754587;81;21172;-64
2021/12/15 00:23:45;;;;;;;23.65;14.80;;;;;;;;;;1718761;82;21006;-63
2021/12/15 00:26:12;;;;;;;22.60;14.05;;;;;;;;;;1756069;81;21004;-64
2021/12/15 00:28:39;;;;;;;23.27;12.65;;;;;;;;;;1756002;80;21467;-63
2021/12/15 00:31:06;;;;;;;22.15;12.68;;;;;;;;;;1754793;81;20966;-63
2021/12/15 00:33:33;;;;;;;23.20;12.45;;;;;;;;;;1753445;81;21172;-64
2021/12/15 00:36:00;;;;;;;18.90;11.70;;;;;;;;;;1753372;80;20943;-64
2021/12/15 00:38:29;;;;;;;22.65;12.45;;;;;;;;;;1754325;81;20946;-62
2021/12/15 00:40:56;;;;;;;20.37;11.97;;;;;;;;;;1755248;81;21890;-63
2021/12/15 00:43:22;;;;;;;23.35;12.90;;;;;;;;;;1719198;83;20947;-62
2021/12/15 00:45:48;;;;;;;22.00;13.80;;;;;;;;;;1719087;83;21108;-63
2021/12/15 00:48:15;;;;;;;23.77;13.60;;;;;;;;;;1754720;81;20879;-62
2021/12/15 00:50:43;;;;;;;25.15;14.25;;;;;;;;;;1718808;82;20903;-64
2021/12/15 00:53:09;;;;;;;22.93;13.22;;;;;;;;;;1755651;81;21392;-62
2021/12/15 00:55:37;;;;;;;25.95;14.35;;;;;;;;;;1755912;81;20986;-63
2021/12/15 00:58:05;;;;;;;26.93;14.50;;;;;;;;;;1754760;81;21552;-62
2021/12/15 01:00:37;;;;;;;29.63;15.65;;;;;;;;;;1719152;83;20923;-63
2021/12/15 01:03:04;;;;;;;30.97;14.53;;;;;;;;;;1742197;81;20946;-63
2021/12/15 01:05:34;;;;;;;30.05;13.88;;;;;;;;;;1730199;81;21079;-61
2021/12/15 01:08:03;;;;;;;26.73;14.98;;;;;;;;;;1725977;82;20851;-62
2021/12/15 01:10:44;;;;;;;29.00;15.28;;;;;;;;;;1729301;82;21110;-63
2021/12/15 01:21:09;;;;;;;25.48;13.22;;;;;;;;;;1725286;81;20938;-62
2021/12/15 01:23:35;;;;;;;25.08;12.33;;;;;;;;;;1729076;82;21159;-63
2021/12/15 01:26:06;;;;;;;24.27;12.85;;;;;;;;;;1730166;81;20995;-62
2021/12/15 01:28:33;;;;;;;28.55;13.43;;;;;;;;;;1733516;81;21504;-63
2021/12/15 01:30:59;;;;;;;23.87;13.15;;;;;;;;;;1730189;81;20995;-61
2021/12/15 01:33:26;;;;;;;28.73;14.30;;;;;;;;;;1729342;81;20947;-63
2021/12/15 01:35:54;;;;;;;25.97;12.78;;;;;;;;;;1731376;81;21160;-62
2021/12/15 01:38:23;;;;;;;28.47;14.13;;;;;;;;;;1730991;81;20919;-61
2021/12/15 01:40:50;;;;;;;27.73;14.55;;;;;;;;;;1730162;81;21056;-61
2021/12/15 01:43:25;;;;;;;26.87;15.32;;;;;;;;;;1704821;82;20990;-62
2021/12/15 01:48:40;;;;;;;28.27;14.25;;;;;;;;;;1733996;81;21245;-62
2021/12/15 01:51:07;;;;;;;25.88;13.68;;;;;;;;;;1728680;82;20978;-61
2021/12/15 01:53:34;;;;;;;27.17;13.53;;;;;;;;;;1729348;82;21174;-63
2021/12/15 01:56:00;;;;;;;27.17;13.15;;;;;;;;;;1730915;82;20910;-64
2021/12/15 01:58:26;;;;;;;25.43;13.45;;;;;;;;;;1736321;81;20978;-63
2021/12/15 02:01:00;;;;;;;22.60;13.22;;;;;;;;;;1729466;82;21119;-63
2021/12/15 02:03:26;;;;;;;25.57;13.50;;;;;;;;;;1734505;80;21476;-63
2021/12/15 02:05:54;;;;;;;22.42;11.68;;;;;;;;;;1751650;80;21082;-63
2021/12/15 02:08:21;;;;;;;26.55;12.95;;;;;;;;;;1756873;80;20981;-63
2021/12/15 02:10:49;;;;;;;23.47;12.98;;;;;;;;;;1752244;80;20919;-62
2021/12/15 02:13:16;;;;;;;24.43;11.80;;;;;;;;;;1749120;80;23200;-63
2021/12/15 02:15:45;;;;;;;24.45;12.43;;;;;;;;;;1751139;81;20967;-63
2021/12/15 02:18:15;;;;;;;24.10;12.40;;;;;;;;;;1753901;80;21639;-62
2021/12/15 02:20:47;;;;;;;24.02;11.90;;;;;;;;;;1752269;80;20903;-62
2021/12/15 02:23:17;;;;;;;26.10;13.00;;;;;;;;;;1752172;80;21056;-63
2021/12/15 02:25:44;;;;;;;21.45;12.07;;;;;;;;;;1718825;83;21197;-61
2021/12/15 02:28:10;;;;;;;32.95;15.10;;;;;;;;;;1753784;80;20852;-60
2021/12/15 02:30:55;;;;;;;32.23;15.53;;;;;;;;;;1753520;80;20881;-61
2021/12/15 02:38:39;;;;;;;33.20;15.58;;;;;;;;;;1752284;80;21867;-63
2021/12/15 02:41:10;;;;;;;34.18;16.00;;;;;;;;;;1752829;80;20950;-63
2021/12/15 02:43:33;;;;;;;38.53;17.10;;;;;;;;;;1718201;83;20986;-63
2021/12/15 02:46:00;;;;;;;38.55;16.70;;;;;;;;;;1751325;81;20986;-63
2021/12/15 02:48:26;;;;;;;36.70;17.30;;;;;;;;;;1716254;83;20935;-63
2021/12/15 02:50:52;;;;;;;38.58;17.62;;;;;;;;;;1751887;80;21858;-62
2021/12/15 02:53:20;;;;;;;43.90;18.87;;;;;;;;;;1756257;80;20907;-63
2021/12/15 02:55:47;;;;;;;37.50;18.50;;;;;;;;;;1751618;81;20986;-63
2021/12/15 02:58:14;;;;;;;35.90;17.60;;;;;;;;;;1759986;80;20998;-64
2021/12/15 03:01:04;;;;;;;43.68;19.40;;;;;;;;;;1752192;81;20926;-62
2021/12/15 03:06:08;;;;;;;42.33;19.50;;;;;;;;;;1729949;81;21025;-62
2021/12/15 03:15:18;;;;;;;39.60;18.40;;;;;;;;;;1728160;82;21484;-62
2021/12/15 03:16:38;;;;;;;34.88;17.25;;;;;;;;;;1729493;83;22014;-62
2021/12/15 03:19:04;;;;;;;32.23;17.02;;;;;;;;;;1728989;83;20931;-62
2021/12/15 03:21:31;;;;;;;33.53;17.10;;;;;;;;;;1696838;83;20954;-64
2021/12/15 03:24:01;;;;;;;39.65;18.12;;;;;;;;;;1718060;83;20980;-63
2021/12/15 03:26:36;;;;;;;37.35;17.02;;;;;;;;;;1729400;82;20962;-63
2021/12/15 03:34:49;;;;;;;41.18;19.02;;;;;;;;;;1727035;83;27957;-64
2021/12/15 03:37:21;;;;;;;50.43;22.05;;;;;;;;;;1727772;82;22089;-64
2021/12/15 03:39:41;;;;;;;45.38;20.25;;;;;;;;;;1728241;81;21476;-62
2021/12/15 03:42:09;;;;;;;50.38;20.52;;;;;;;;;;1730238;81;21151;-63
2021/12/15 03:44:37;;;;;;;41.80;20.43;;;;;;;;;;1730564;81;20962;-63
2021/12/15 03:47:06;;;;;;;38.98;19.32;;;;;;;;;;1728693;82;22461;-64
2021/12/15 03:49:33;;;;;;;39.95;20.12;;;;;;;;;;1728904;83;21524;-62
2021/12/15 03:52:00;;;;;;;41.77;18.90;;;;;;;;;;1729619;82;21508;-63
2021/12/15 03:54:26;;;;;;;39.58;19.35;;;;;;;;;;1729077;82;21918;-60
2021/12/15 03:56:54;;;;;;;41.48;19.87;;;;;;;;;;1729531;81;21017;-64
2021/12/15 03:59:23;;;;;;;37.80;18.42;;;;;;;;;;1729676;81;21406;-64
2021/12/15 04:01:50;;;;;;;42.30;19.60;;;;;;;;;;1730088;81;20911;-64
2021/12/15 04:04:16;;;;;;;41.85;20.45;;;;;;;;;;1742242;81;20990;-64
2021/12/15 04:06:42;;;;;;;39.53;18.67;;;;;;;;;;1753135;80;21168;-64
2021/12/15 04:09:10;;;;;;;43.58;20.77;;;;;;;;;;1754916;80;20886;-63
2021/12/15 04:11:37;;;;;;;42.05;19.50;;;;;;;;;;1754014;80;20964;-64
2021/12/15 04:14:11;;;;;;;36.15;19.02;;;;;;;;;;1745968;81;20906;-62
2021/12/15 04:16:44;;;;;;;37.90;18.65;;;;;;;;;;1726550;81;20994;-62
2021/12/15 04:19:10;;;;;;;38.90;18.48;;;;;;;;;;1679297;83;21801;-62
2021/12/15 04:21:36;;;;;;;38.15;19.42;;;;;;;;;;1688853;84;20986;-62
2021/12/15 04:24:04;;;;;;;40.00;19.30;;;;;;;;;;1753943;81;21038;-63
2021/12/15 04:26:31;;;;;;;39.83;18.65;;;;;;;;;;1755941;80;20999;-62
2021/12/15 04:28:57;;;;;;;41.48;18.70;;;;;;;;;;1717700;82;20987;-62
2021/12/15 04:31:26;;;;;;;35.95;19.57;;;;;;;;;;1763779;80;21203;-62
2021/12/15 04:33:55;;;;;;;36.50;19.30;;;;;;;;;;1754669;80;21881;-62
2021/12/15 04:36:26;;;;;;;36.95;18.55;;;;;;;;;;1753442;80;20931;-63
2021/12/15 04:38:54;;;;;;;34.03;17.73;;;;;;;;;;1756811;80;21498;-62
2021/12/15 04:41:20;;;;;;;33.18;17.20;;;;;;;;;;1764249;80;20867;-63
2021/12/15 04:43:56;;;;;;;36.30;17.07;;;;;;;;;;1756201;80;20918;-61
2021/12/15 04:46:17;;;;;;;36.33;18.62;;;;;;;;;;1755350;80;21084;-62
2021/12/15 04:48:44;;;;;;;34.65;17.87;;;;;;;;;;1753386;80;21031;-63
2021/12/15 04:51:10;;;;;;;34.38;18.57;;;;;;;;;;1760260;80;20899;-63
2021/12/15 04:53:37;;;;;;;35.08;18.20;;;;;;;;;;1754432;80;21519;-63
2021/12/15 04:56:05;;;;;;;36.53;18.60;;;;;;;;;;1754592;81;21842;-63
2021/12/15 04:58:32;;;;;;;37.05;19.40;;;;;;;;;;1746960;80;20924;-63
2021/12/15 05:00:59;;;;;;;37.03;20.32;;;;;;;;;;1756573;80;21035;-62
2021/12/15 05:03:26;;;;;;;33.00;18.25;;;;;;;;;;1755951;80;21087;-63
2021/12/15 05:05:52;;;;;;;34.18;18.80;;;;;;;;;;1757525;80;20970;-63
2021/12/15 05:08:19;;;;;;;32.28;19.50;;;;;;;;;;1761328;80;21413;-63
2021/12/15 05:10:46;;;;;;;35.60;18.32;;;;;;;;;;1760334;80;20966;-63
2021/12/15 05:13:13;;;;;;;36.05;17.95;;;;;;;;;;1721230;83;21042;-62
2021/12/15 05:15:41;;;;;;;35.60;17.82;;;;;;;;;;1757324;80;20951;-62
2021/12/15 05:18:07;;;;;;;32.90;19.07;;;;;;;;;;1760591;81;20974;-63
2021/12/15 05:20:35;;;;;;;37.90;20.50;;;;;;;;;;1756897;80;22005;-63
2021/12/15 05:23:03;;;;;;;43.35;20.70;;;;;;;;;;1757882;80;20997;-65
2021/12/15 05:25:29;;;;;;;43.87;20.88;;;;;;;;;;1721883;83;20903;-63
2021/12/15 05:27:56;;;;;;;35.30;20.20;;;;;;;;;;1755839;80;20985;-64
2021/12/15 05:30:22;;;;;;;44.05;21.27;;;;;;;;;;1754819;80;20984;-64
2021/12/15 05:32:49;;;;;;;40.12;21.00;;;;;;;;;;1758758;80;22366;-62
2021/12/15 05:35:21;;;;;;;34.67;19.62;;;;;;;;;;1719857;81;21577;-65
2021/12/15 05:37:44;;;;;;;40.80;22.05;;;;;;;;;;1756903;80;20978;-61
2021/12/15 05:40:11;;;;;;;49.65;24.15;;;;;;;;;;1756797;80;20946;-64
2021/12/15 05:42:39;;;;;;;44.20;23.42;;;;;;;;;;1757183;80;20843;-63
2021/12/15 05:45:06;;;;;;;48.13;22.73;;;;;;;;;;1757120;81;21932;-64
2021/12/15 05:47:33;;;;;;;41.98;22.27;;;;;;;;;;1757496;80;21104;-62
2021/12/15 05:50:00;;;;;;;43.73;23.52;;;;;;;;;;1757376;80;20986;-58
2021/12/15 05:52:29;;;;;;;45.25;23.87;;;;;;;;;;1722697;81;21059;-58
2021/12/15 05:54:54;;;;;;;43.50;23.47;;;;;;;;;;1755189;80;21040;-60
2021/12/15 05:57:20;;;;;;;43.28;23.50;;;;;;;;;;1757599;81;21166;-62
2021/12/15 05:59:47;;;;;;;42.00;21.60;;;;;;;;;;1757000;80;20954;-60
2021/12/15 06:02:13;;;;;;;40.25;21.12;;;;;;;;;;1757352;81;21017;-61
2021/12/15 06:04:40;;;;;;;42.73;23.98;;;;;;;;;;1719112;81;20995;-60
2021/12/15 06:07:07;;;;;;;50.00;24.37;;;;;;;;;;1755722;80;20946;-65
2021/12/15 06:09:34;;;;;;;53.60;24.43;;;;;;;;;;1755918;80;21634;-63
2021/12/15 06:12:01;;;;;;;46.53;23.62;;;;;;;;;;1753046;80;20883;-60
2021/12/15 06:14:28;;;;;;;45.92;22.65;;;;;;;;;;1751570;80;20987;-59
2021/12/15 06:16:58;;;;;;;47.93;22.17;;;;;;;;;;1751084;80;20955;-59
2021/12/15 06:19:25;;;;;;;49.70;23.87;;;;;;;;;;1718825;81;21061;-60
2021/12/15 06:21:53;;;;;;;50.65;25.25;;;;;;;;;;1718333;83;20968;-59
2021/12/15 06:24:19;;;;;;;46.37;23.70;;;;;;;;;;1751794;80;20939;-59
2021/12/15 06:26:46;;;;;;;50.15;25.97;;;;;;;;;;1751795;80;21040;-59
2021/12/15 06:29:12;;;;;;;44.42;23.57;;;;;;;;;;1751456;80;21414;-61
2021/12/15 06:31:39;;;;;;;49.23;23.47;;;;;;;;;;1750170;81;21437;-61
2021/12/15 06:34:05;;;;;;;41.90;20.45;;;;;;;;;;1751658;80;21169;-59
2021/12/15 06:36:33;;;;;;;43.05;22.10;;;;;;;;;;1751114;80;20920;-60
2021/12/15 06:39:00;;;;;;;37.35;20.27;;;;;;;;;;1752273;80;21077;-61
2021/12/15 06:41:26;;;;;;;38.25;20.55;;;;;;;;;;1752349;80;20908;-60
2021/12/15 06:43:55;;;;;;;38.23;21.17;;;;;;;;;;1752357;80;21013;-60
2021/12/15 06:46:50;;;;;;;35.25;20.45;;;;;;;;;;1751400;80;21087;-61
2021/12/15 06:57:35;;;;;;;42.50;22.93;;;;;;;;;;1749847;80;20944;-59
2021/12/15 06:59:43;;;;;;;40.12;21.37;;;;;;;;;;1748852;80;21096;-60
2021/12/15 07:02:10;;;;;;;43.25;22.30;;;;;;;;;;1752152;80;20927;-59
2021/12/15 07:04:36;;;;;;;38.48;21.55;;;;;;;;;;1755531;80;21032;-60
2021/12/15 07:07:04;;;;;;;40.85;20.70;;;;;;;;;;1758257;80;20946;-59
2021/12/15 07:09:31;;;;;;;45.30;22.77;;;;;;;;;;1757176;80;20998;-60
2021/12/15 07:11:57;;;;;;;39.18;21.42;;;;;;;;;;1756777;80;21477;-60
2021/12/15 07:14:24;;;;;;;43.08;22.07;;;;;;;;;;1756682;80;21029;-61
2021/12/15 07:16:52;;;;;;;39.85;21.33;;;;;;;;;;1757103;80;20995;-62
2021/12/15 07:19:30;;;;;;;42.03;22.13;;;;;;;;;;1757680;80;20946;-61
2021/12/15 07:22:16;;;;;;;41.00;23.45;;;;;;;;;;1755454;80;20985;-61
2021/12/15 07:24:35;;;;;;;44.67;22.82;;;;;;;;;;1754810;80;21179;-60
2021/12/15 07:27:02;;;;;;;44.08;21.60;;;;;;;;;;1756292;80;20999;-60
2021/12/15 07:29:28;;;;;;;45.10;24.15;;;;;;;;;;1758236;80;21485;-59
2021/12/15 07:31:55;;;;;;;45.78;23.27;;;;;;;;;;1757781;80;21026;-60
2021/12/15 07:34:23;;;;;;;47.33;23.60;;;;;;;;;;1758039;80;21373;-61
2021/12/15 07:36:50;;;;;;;46.30;23.30;;;;;;;;;;1758550;80;21378;-63
2021/12/15 07:39:16;;;;;;;46.00;22.70;;;;;;;;;;1764780;80;20934;-60
2021/12/15 07:41:52;;;;;;;40.73;22.42;;;;;;;;;;1730475;80;21523;-60
2021/12/15 07:44:19;;;;;;;45.88;22.93;;;;;;;;;;1757228;80;21023;-59
2021/12/15 07:46:46;;;;;;;48.08;22.55;;;;;;;;;;1757422;80;21022;-60
2021/12/15 07:49:13;;;;;;;39.88;22.00;;;;;;;;;;1755750;80;21809;-59
2021/12/15 07:51:43;;;;;;;43.63;22.25;;;;;;;;;;1757486;80;20903;-59
2021/12/15 07:54:09;;;;;;;40.55;22.80;;;;;;;;;;1759424;80;21044;-61
2021/12/15 07:56:35;;;;;;;44.65;22.98;;;;;;;;;;1757874;80;21090;-59
2021/12/15 07:59:02;;;;;;;43.90;23.52;;;;;;;;;;1757861;80;21036;-60
2021/12/15 08:01:29;;;;;;;44.73;23.50;;;;;;;;;;1757910;80;21111;-60
2021/12/15 08:03:55;;;;;;;53.13;26.87;;;;;;;;;;1757434;80;20973;-60
2021/12/15 08:06:25;;;;;;;45.78;26.07;;;;;;;;;;1752042;81;20928;-59
2021/12/15 08:08:54;;;;;;;48.33;24.72;;;;;;;;;;1751889;80;20997;-60
2021/12/15 08:11:22;;;;;;;49.75;26.12;;;;;;;;;;1753616;80;20988;-60
2021/12/15 08:13:49;;;;;;;47.88;27.10;;;;;;;;;;1751997;80;21812;-62
2021/12/15 08:16:16;;;;;;;53.90;25.35;;;;;;;;;;1752077;80;20940;-65
2021/12/15 08:18:43;;;;;;;47.67;24.90;;;;;;;;;;1752358;80;21015;-60
2021/12/15 08:21:09;;;;;;;47.85;24.90;;;;;;;;;;1753485;80;22042;-60
2021/12/15 08:23:35;;;;;;;49.67;24.75;;;;;;;;;;1751257;80;20953;-61
2021/12/15 08:26:02;;;;;;;47.50;23.10;;;;;;;;;;1753339;80;21228;-60
2021/12/15 08:28:29;;;;;;;47.27;24.10;;;;;;;;;;1751590;80;20911;-59
2021/12/15 08:30:56;;;;;;;43.48;23.12;;;;;;;;;;1751834;80;20943;-59
2021/12/15 08:33:23;;;;;;;43.20;21.97;;;;;;;;;;1752532;80;20976;-60
2021/12/15 08:35:58;;;;;;;52.95;24.52;;;;;;;;;;1751867;80;20998;-59
2021/12/15 08:38:25;;;;;;;47.40;23.55;;;;;;;;;;1751500;80;21137;-61
2021/12/15 08:40:52;;;;;;;46.95;24.20;;;;;;;;;;1755857;80;21049;-61
2021/12/15 08:43:18;;;;;;;51.83;25.92;;;;;;;;;;1752969;80;21017;-60
2021/12/15 08:45:57;;;;;;;48.70;24.95;;;;;;;;;;1752324;80;20951;-62
2021/12/15 08:48:23;;;;;;;48.63;24.77;;;;;;;;;;1747220;81;21047;-60
2021/12/15 08:50:50;;;;;;;50.48;25.85;;;;;;;;;;1754558;80;21912;-61
2021/12/15 08:53:16;;;;;;;49.30;26.45;;;;;;;;;;1754790;80;21045;-60
2021/12/15 08:55:45;;;;;;;54.85;26.90;;;;;;;;;;1753825;80;20971;-60
2021/12/15 08:58:13;;;;;;;51.88;26.48;;;;;;;;;;1751145;80;21068;-60
2021/12/15 09:00:40;;;;;;;56.42;28.62;;;;;;;;;;1751435;80;20932;-60
2021/12/15 09:03:06;;;;;;;56.60;28.40;;;;;;;;;;1752105;80;21164;-60
2021/12/15 09:05:33;;;;;;;57.80;28.35;;;;;;;;;;1749399;80;21104;-61
2021/12/15 09:08:00;;;;;;;57.38;28.32;;;;;;;;;;1733426;81;20973;-61
2021/12/15 09:10:28;;;;;;;54.27;29.05;;;;;;;;;;1730545;81;21074;-61
2021/12/15 09:12:55;;;;;;;57.62;30.00;;;;;;;;;;1730002;81;21065;-61
2021/12/15 09:15:22;;;;;;;53.52;30.17;;;;;;;;;;1729335;81;21499;-61
2021/12/15 09:17:48;;;;;;;63.20;29.40;;;;;;;;;;1729357;81;21056;-61
2021/12/15 09:20:17;;;;;;;54.58;30.08;;;;;;;;;;1730504;81;21011;-61
2021/12/15 09:22:44;;;;;;;55.75;29.18;;;;;;;;;;1729575;81;20981;-60
2021/12/15 09:25:11;;;;;;;48.60;27.67;;;;;;;;;;1728586;82;21064;-61
2021/12/15 09:27:38;;;;;;;55.78;28.30;;;;;;;;;;1728903;82;22040;-60
2021/12/15 09:30:07;;;;;;;46.85;26.48;;;;;;;;;;1728628;81;20959;-60
2021/12/15 09:32:33;;;;;;;54.45;27.85;;;;;;;;;;1729152;81;21010;-59
2021/12/15 09:34:59;;;;;;;50.95;27.73;;;;;;;;;;1729127;82;20938;-60
2021/12/15 09:37:26;;;;;;;50.38;26.52;;;;;;;;;;1732888;82;21011;-60
2021/12/15 09:39:52;;;;;;;50.95;28.38;;;;;;;;;;1730655;82;23299;-60
2021/12/15 09:42:23;;;;;;;51.45;27.27;;;;;;;;;;1730073;81;21682;-61
2021/12/15 09:44:49;;;;;;;54.60;27.80;;;;;;;;;;1728951;82;20973;-60
2021/12/15 09:47:42;;;;;;;50.88;27.17;;;;;;;;;;1729567;81;20910;-60
2021/12/15 10:06:21;;;;;;;55.45;28.65;;;;;;;;;;1736994;81;21119;-63
2021/12/15 10:19:46;;;;;;;67.40;32.73;;;;;;;;;;1754170;80;21234;-62
2021/12/15 10:22:23;;;;;;;64.42;32.85;;;;;;;;;;1748854;81;20893;-60
2021/12/15 10:24:52;;;;;;;66.72;33.18;;;;;;;;;;1754293;80;21023;-60
2021/12/15 10:27:38;;;;;;;63.40;31.70;;;;;;;;;;1753517;80;21494;-64
2021/12/15 10:30:22;;;;;;;57.20;30.03;;;;;;;;;;1750150;80;21053;-61
2021/12/15 10:32:51;;;;;;;60.98;29.05;;;;;;;;;;1752479;80;21987;-61
2021/12/15 10:35:27;;;;;;;58.38;29.70;;;;;;;;;;1755113;80;20947;-61
2021/12/15 10:38:16;;;;;;;58.52;31.30;;;;;;;;;;1752407;80;20978;-61
2021/12/15 10:40:48;;;;;;;61.08;32.75;;;;;;;;;;1751550;81;20923;-64
2021/12/15 10:43:14;;;;;;;65.20;32.30;;;;;;;;;;1735815;80;20993;-62
2021/12/15 10:45:43;;;;;;;64.20;32.83;;;;;;;;;;1752090;80;21873;-62
2021/12/15 10:48:20;;;;;;;59.85;32.45;;;;;;;;;;1752100;80;21048;-63
2021/12/15 10:50:38;;;;;;;63.75;32.05;;;;;;;;;;1750786;80;21493;-64
2021/12/15 10:53:04;;;;;;;69.55;34.65;;;;;;;;;;1752296;80;21478;-64
2021/12/15 10:55:34;;;;;;;67.05;31.95;;;;;;;;;;1755588;80;21520;-63
2021/12/15 10:58:00;;;;;;;62.23;31.73;;;;;;;;;;1750814;80;21159;-62
2021/12/15 11:00:27;;;;;;;64.05;32.00;;;;;;;;;;1752101;80;20980;-65
2021/12/15 11:03:03;;;;;;;54.73;26.97;;;;;;;;;;1728451;81;20990;-63
2021/12/15 11:05:32;;;;;;;49.08;24.92;;;;;;;;;;1751054;80;20950;-66
2021/12/15 11:07:59;;;;;;;47.62;25.10;;;;;;;;;;1728537;83;21461;-63
2021/12/15 11:10:31;;;;;;;43.23;24.37;;;;;;;;;;1729839;81;20970;-65
2021/12/15 11:13:04;;;;;;;47.17;24.63;;;;;;;;;;1689225;84;20977;-64
2021/12/15 11:15:49;;;;;;;49.05;27.50;;;;;;;;;;1729571;81;20951;-62
2021/12/15 11:18:24;;;;;;;52.55;26.45;;;;;;;;;;1728697;83;20971;-65
2021/12/15 11:21:02;;;;;;;46.53;27.42;;;;;;;;;;1729619;81;21534;-70
2021/12/15 11:23:30;;;;;;;42.90;23.80;;;;;;;;;;1730120;83;21104;-70
2021/12/15 11:26:05;;;;;;;50.63;25.72;;;;;;;;;;1729720;83;20978;-69
2021/12/15 11:28:37;;;;;;;45.25;24.55;;;;;;;;;;1730125;81;20990;-63
2021/12/15 11:31:11;;;;;;;53.92;26.62;;;;;;;;;;1729435;81;21378;-64
2021/12/15 11:33:47;;;;;;;42.70;23.95;;;;;;;;;;1729660;80;21553;-64
2021/12/15 11:36:17;;;;;;;43.78;21.97;;;;;;;;;;1727148;81;21193;-59
2021/12/15 11:38:50;;;;;;;43.15;23.62;;;;;;;;;;1730140;81;20994;-59
2021/12/15 11:41:20;;;;;;;43.40;23.50;;;;;;;;;;1728401;83;21263;-62
2021/12/15 11:43:52;;;;;;;36.53;22.17;;;;;;;;;;1728326;81;21489;-64
2021/12/15 11:46:23;;;;;;;44.48;23.85;;;;;;;;;;1698175;83;21513;-63
2021/12/15 11:49:06;;;;;;;42.78;24.32;;;;;;;;;;1729675;81;21821;-62
2021/12/15 11:51:42;;;;;;;42.65;22.58;;;;;;;;;;1729095;83;21020;-61
2021/12/15 11:54:20;;;;;;;42.98;22.20;;;;;;;;;;1729954;81;21403;-62
2021/12/15 11:57:05;;;;;;;40.70;23.05;;;;;;;;;;1729982;81;20942;-62
2021/12/15 11:59:35;;;;;;;44.23;23.73;;;;;;;;;;1729816;83;21437;-63
2021/12/15 12:02:08;;;;;;;40.03;22.77;;;;;;;;;;1698007;83;21171;-63
2021/12/15 12:04:41;;;;;;;57.03;32.85;;;;;;;;;;1719401;82;37422;-62
2021/12/15 12:07:20;;;;;;;49.00;28.05;;;;;;;;;;1718866;82;20947;-62
2021/12/15 12:10:02;;;;;;;55.75;28.42;;;;;;;;;;1751185;80;21011;-62
2021/12/15 12:12:35;;;;;;;54.23;26.95;;;;;;;;;;1752082;81;21378;-61
2021/12/15 12:15:07;;;;;;;50.52;25.57;;;;;;;;;;1751864;80;21813;-63
2021/12/15 12:17:38;;;;;;;52.20;26.97;;;;;;;;;;1750837;80;21585;-62
2021/12/15 12:20:12;;;;;;;57.05;29.85;;;;;;;;;;1751823;80;21007;-64
2021/12/15 12:22:39;;;;;;;56.00;29.35;;;;;;;;;;1720877;82;21450;-67
2021/12/15 12:25:09;;;;;;;59.40;30.05;;;;;;;;;;1752058;80;21491;-58
2021/12/15 12:27:36;;;;;;;56.88;29.67;;;;;;;;;;1752688;80;21805;-59
2021/12/15 12:30:11;;;;;;;60.75;30.43;;;;;;;;;;1752066;80;21098;-59
2021/12/15 12:32:38;;;;;;;59.90;27.87;;;;;;;;;;1754819;80;21513;-59
2021/12/15 12:35:06;;;;;;;63.30;27.25;;;;;;;;;;1755962;80;21040;-61
2021/12/15 12:37:33;;;;;;;56.88;29.07;;;;;;;;;;1753379;80;21423;-62
2021/12/15 12:40:08;;;;;;;62.27;29.00;;;;;;;;;;1751854;80;21158;-62
2021/12/15 12:42:34;;;;;;;62.78;30.37;;;;;;;;;;1750835;80;20991;-62
2021/12/15 12:45:16;;;;;;;64.03;29.82;;;;;;;;;;1750091;80;21462;-63
2021/12/15 12:48:00;;;;;;;54.30;27.48;;;;;;;;;;1752820;80;20891;-63
2021/12/15 13:01:13;;;;;;;60.40;28.42;;;;;;;;;;1689441;83;20923;-63
2021/12/15 13:03:46;;;;;;;60.65;28.92;;;;;;;;;;1711299;80;20916;-64
2021/12/15 13:06:16;;;;;;;62.00;29.00;;;;;;;;;;1751380;80;21948;-62
2021/12/15 13:08:44;;;;;;;65.32;31.57;;;;;;;;;;1757965;80;20988;-62
2021/12/15 13:11:25;;;;;;;61.33;29.90;;;;;;;;;;1756575;80;20940;-62
2021/12/15 13:14:10;;;;;;;58.20;30.57;;;;;;;;;;1757239;80;21677;-63
2021/12/15 13:16:43;;;;;;;61.50;29.00;;;;;;;;;;1755449;80;21510;-64
2021/12/15 13:19:14;;;;;;;56.00;29.27;;;;;;;;;;1758662;80;21168;-65
2021/12/15 13:21:55;;;;;;;63.23;30.15;;;;;;;;;;1721176;81;20876;-64
2021/12/15 13:30:24;;;;;;;58.20;29.98;;;;;;;;;;1747501;80;21000;-64
2021/12/15 13:32:51;;;;;;;58.92;29.85;;;;;;;;;;1758639;80;21222;-64
2021/12/15 13:35:25;;;;;;;62.90;31.15;;;;;;;;;;1757652;80;21606;-62
2021/12/15 13:37:59;;;;;;;68.00;32.58;;;;;;;;;;1758237;80;20993;-62
2021/12/15 13:41:07;;;;;;;67.40;33.42;;;;;;;;;;1757847;80;21486;-64
2021/12/15 13:43:39;;;;;;;69.77;32.80;;;;;;;;;;1754780;80;21478;-62
2021/12/15 13:46:11;;;;;;;69.30;34.88;;;;;;;;;;1758000;80;21100;-63
2021/12/15 13:49:07;;;;;;;71.35;34.38;;;;;;;;;;1757245;80;20979;-62
2021/12/15 13:51:56;;;;;;;78.55;38.20;;;;;;;;;;1757297;80;20922;-62
2021/12/15 13:54:36;;;;;;;88.35;40.50;;;;;;;;;;1757415;81;21066;-64
2021/12/15 13:57:20;;;;;;;82.65;38.67;;;;;;;;;;1757720;80;21449;-63
2021/12/15 13:59:49;;;;;;;94.40;43.28;;;;;;;;;;1757612;80;21506;-65
2021/12/15 14:02:27;;;;;;;88.50;42.00;;;;;;;;;;1757090;80;21588;-64
2021/12/15 14:05:10;;;;;;;87.65;40.85;;;;;;;;;;1762932;80;21477;-64
2021/12/15 14:07:46;;;;;;;92.37;44.70;;;;;;;;;;1712458;81;20978;-63
2021/12/15 14:10:21;;;;;;;89.77;39.88;;;;;;;;;;1737785;81;20943;-62
2021/12/15 14:12:50;;;;;;;84.55;37.10;;;;;;;;;;1699165;83;21132;-62
2021/12/15 14:15:28;;;;;;;82.50;36.42;;;;;;;;;;1723663;81;21060;-62
2021/12/15 14:18:01;;;;;;;83.52;36.90;;;;;;;;;;1695398;84;20999;-62
2021/12/15 14:20:30;;;;;;;79.00;35.78;;;;;;;;;;1735353;81;20906;-63
2021/12/15 14:23:00;;;;;;;84.40;36.42;;;;;;;;;;1728535;83;20918;-64
2021/12/15 14:25:26;;;;;;;87.88;43.02;;;;;;;;;;1737107;81;21301;-63
2021/12/15 14:27:52;;;;;;;85.75;39.38;;;;;;;;;;1704591;83;21066;-63
2021/12/15 14:30:20;;;;;;;88.40;38.55;;;;;;;;;;1735831;81;20934;-63
2021/12/15 14:32:46;;;;;;;81.15;36.45;;;;;;;;;;1728126;81;21098;-62
2021/12/15 14:35:19;;;;;;;80.22;36.45;;;;;;;;;;1735994;81;21871;-63
2021/12/15 14:37:45;;;;;;;83.17;34.33;;;;;;;;;;1729453;81;21138;-63
2021/12/15 14:40:11;;;;;;;80.25;37.13;;;;;;;;;;1734258;81;20927;-63
2021/12/15 14:42:42;;;;;;;80.60;38.02;;;;;;;;;;1733175;81;21503;-63
2021/12/15 14:45:09;;;;;;;80.22;37.33;;;;;;;;;;1729542;81;20947;-63
2021/12/15 14:47:37;;;;;;;83.00;38.35;;;;;;;;;;1729813;81;20958;-61
2021/12/15 14:50:11;;;;;;;84.52;36.80;;;;;;;;;;1731879;81;21254;-62
2021/12/15 14:52:39;;;;;;;84.10;37.28;;;;;;;;;;1692777;84;20964;-63
2021/12/15 14:55:10;;;;;;;85.95;37.83;;;;;;;;;;1732909;81;20939;-62
2021/12/15 14:57:37;;;;;;;83.55;35.98;;;;;;;;;;1743461;81;20970;-62
2021/12/15 15:00:18;;;;;;;86.20;37.45;;;;;;;;;;1736630;81;21421;-61
2021/12/15 15:02:53;;;;;;;75.85;35.00;;;;;;;;;;1732924;81;21241;-62
2021/12/15 15:05:28;;;;;;;78.50;34.92;;;;;;;;;;1734282;81;20883;-63
2021/12/15 15:08:00;;;;;;;79.30;36.23;;;;;;;;;;1745993;80;20954;-61
2021/12/15 15:10:29;;;;;;;77.35;36.68;;;;;;;;;;1751547;80;21037;-62
2021/12/15 15:12:57;;;;;;;77.27;36.38;;;;;;;;;;1750634;80;21041;-61
2021/12/15 15:15:29;;;;;;;76.33;35.50;;;;;;;;;;1751770;80;21160;-63
2021/12/15 15:20:36;;;;;;;75.37;35.03;;;;;;;;;;1733017;80;21013;-61
2021/12/15 15:23:06;;;;;;;77.05;35.30;;;;;;;;;;1752251;81;20875;-62
2021/12/15 15:25:33;;;;;;;72.67;33.55;;;;;;;;;;1751220;81;20986;-63
2021/12/15 15:28:07;;;;;;;76.28;35.17;;;;;;;;;;1752431;80;21865;-61
2021/12/15 15:30:34;;;;;;;78.02;34.92;;;;;;;;;;1751112;80;20923;-64
2021/12/15 15:33:12;;;;;;;75.65;35.20;;;;;;;;;;1752091;80;20998;-62
2021/12/15 15:35:50;;;;;;;73.30;33.95;;;;;;;;;;1749186;80;20907;-63
2021/12/15 15:38:19;;;;;;;73.65;31.95;;;;;;;;;;1751484;80;20948;-62
2021/12/15 15:40:53;;;;;;;69.80;34.48;;;;;;;;;;1751749;80;21102;-64
2021/12/15 15:43:22;;;;;;;72.35;32.83;;;;;;;;;;1755291;80;21031;-61
2021/12/15 15:45:51;;;;;;;76.35;33.08;;;;;;;;;;1751966;80;21586;-61
2021/12/15 15:48:22;;;;;;;81.40;36.35;;;;;;;;;;1751187;80;21058;-62
2021/12/15 15:51:04;;;;;;;77.78;35.70;;;;;;;;;;1753568;80;20981;-61
2021/12/15 15:53:33;;;;;;;76.55;33.18;;;;;;;;;;1755302;80;21171;-60
2021/12/15 15:56:13;;;;;;;83.15;35.08;;;;;;;;;;1751703;80;21062;-62